createdAt,value
2023-01-02T00:00:08.055Z,0
2023-01-02T00:05:07.520Z,0
2023-01-02T00:10:07.812Z,0.4
2023-01-02T00:15:08.263Z,0.4
2023-01-02T00:20:07.619Z,0
2023-01-02T00:25:08.118Z,0
2023-01-02T00:30:07.554Z,0.1
2023-01-02T00:35:08.086Z,0.1
2023-01-02T00:40:07.617Z,0.4
2023-01-02T00:45:08.310Z,0.4
2023-01-02T00:50:07.785Z,0.8
2023-01-02T00:55:07.410Z,0.8
2023-01-02T01:00:07.875Z,0.4
2023-01-02T01:05:07.818Z,0.4
2023-01-02T01:10:08.392Z,0.9
2023-01-02T01:15:08.071Z,0.9
2023-01-02T01:20:07.596Z,1
2023-01-02T01:25:07.657Z,1
2023-01-02T01:30:08.104Z,1.3
2023-01-02T01:35:07.781Z,1.3
2023-01-02T01:40:08.165Z,0.9
2023-01-02T01:45:07.537Z,0.9
2023-01-02T01:50:08.012Z,0.5
2023-01-02T01:55:07.664Z,0.5
2023-01-02T02:00:08.141Z,0.4
2023-01-02T02:05:07.985Z,0.4
2023-01-02T02:10:08.470Z,0.4
2023-01-02T02:15:08.068Z,0.4
2023-01-02T02:20:07.568Z,0.5
2023-01-02T02:25:07.978Z,0.5
2023-01-02T02:30:08.315Z,0.9
2023-01-02T02:35:07.720Z,0.9
2023-01-02T02:40:08.484Z,0.9
2023-01-02T02:45:08.372Z,0.9
2023-01-02T02:50:07.963Z,0.9
2023-01-02T02:55:07.472Z,0.9
2023-01-02T03:00:08.389Z,0.9
2023-01-02T03:05:07.767Z,0.9
2023-01-02T03:10:08.104Z,1.3
2023-01-02T03:15:08.294Z,1.3
2023-01-02T03:20:08.095Z,1.2
2023-01-02T03:25:08.579Z,1.2
2023-01-02T03:30:08.197Z,0.9
2023-01-02T03:35:07.596Z,0.9
2023-01-02T03:40:08.431Z,0.9
2023-01-02T03:45:07.698Z,0.9
2023-01-02T03:50:08.459Z,0.9
2023-01-02T03:55:08.453Z,0.9
2023-01-02T04:00:08.299Z,0.9
2023-01-02T04:05:08.085Z,0.9
2023-01-02T04:10:08.328Z,1.3
2023-01-02T04:15:08.145Z,1.3
2023-01-02T04:20:07.846Z,1.3
2023-01-02T04:25:07.560Z,1.3
2023-01-02T04:30:08.046Z,1.3
2023-01-02T04:35:08.103Z,1.3
2023-01-02T04:40:08.124Z,1.5
2023-01-02T04:45:08.188Z,1.5
2023-01-02T04:50:07.995Z,1.8
2023-01-02T04:55:08.548Z,1.8
2023-01-02T05:00:08.148Z,1.8
2023-01-02T05:05:08.321Z,1.8
2023-01-02T05:10:08.243Z,1.8
2023-01-02T05:15:07.909Z,1.8
2023-01-02T05:20:08.380Z,1.8
2023-01-02T05:25:08.155Z,1.8
2023-01-02T05:30:07.842Z,1.8
2023-01-02T05:35:07.743Z,1.8
2023-01-02T05:40:07.808Z,1.8
2023-01-02T05:45:07.562Z,1.8
2023-01-02T05:50:08.026Z,1.8
2023-01-02T10:20:08.622Z,3.2
2023-01-02T10:25:08.236Z,3.2
2023-01-02T10:30:08.643Z,3.6
2023-01-02T10:35:08.197Z,3.6
2023-01-02T10:40:08.089Z,3.7
2023-01-02T10:45:08.459Z,3.7
2023-01-02T10:50:08.020Z,3.5
2023-01-02T10:55:08.691Z,3.5
2023-01-02T11:00:08.189Z,4.5
2023-01-02T11:05:08.116Z,4.5
2023-01-02T11:10:08.164Z,4.1
2023-01-02T11:15:07.989Z,4.1
2023-01-02T11:20:08.374Z,4.4
2023-01-02T11:25:08.849Z,4.4
2023-01-02T11:30:07.991Z,4.5
2023-01-02T11:35:08.467Z,4.5
2023-01-02T11:40:08.202Z,4.9
2023-01-02T11:45:08.452Z,4.9
2023-01-02T11:50:08.602Z,3.9
2023-01-02T11:55:08.571Z,3.9
2023-01-02T12:00:08.015Z,3.8
2023-01-02T12:05:08.477Z,3.8
2023-01-02T12:10:08.128Z,4.5
2023-01-02T12:15:08.528Z,4.5
2023-01-02T12:20:08.089Z,4
2023-01-02T12:25:08.785Z,4
2023-01-02T12:30:08.164Z,4
2023-01-02T12:35:08.456Z,4
2023-01-02T12:40:08.089Z,3.3
2023-01-02T12:45:08.424Z,3.3
2023-01-02T12:50:08.693Z,3.1
2023-01-02T12:55:08.236Z,3.1
2023-01-02T13:00:08.676Z,2.5
2023-01-02T13:05:08.088Z,2.5
2023-01-02T13:10:08.468Z,3.2
2023-01-02T13:15:07.968Z,3.2
2023-01-02T13:20:08.429Z,2.7
2023-01-02T13:25:08.703Z,2.7
2023-01-02T13:30:07.862Z,2.7
2023-01-02T13:35:08.357Z,2.7
2023-01-02T13:40:08.234Z,3
2023-01-02T13:45:08.623Z,3
2023-01-02T13:50:07.864Z,2
2023-01-02T13:55:08.522Z,2
2023-01-02T14:00:08.062Z,2.4
2023-01-02T14:05:08.797Z,2.4
2023-01-02T14:10:08.387Z,1.7
2023-01-02T14:15:07.907Z,1.7
2023-01-02T14:20:08.261Z,2.6
2023-01-02T14:25:08.988Z,2.6
2023-01-02T14:30:08.354Z,2.9
2023-01-02T14:35:08.711Z,2.9
2023-01-02T14:40:08.747Z,1.9
2023-01-02T14:45:08.007Z,1.9
2023-01-02T14:50:07.975Z,1.8
2023-01-02T14:55:08.607Z,1.8
2023-01-02T15:00:09.042Z,1.3
2023-01-02T15:05:08.797Z,1.3
2023-01-02T15:10:08.333Z,2
2023-01-02T15:15:08.535Z,2
2023-01-02T15:20:08.430Z,2.7
2023-01-02T15:25:08.694Z,2.7
2023-01-02T15:30:08.072Z,2.3
2023-01-02T15:35:08.441Z,2.3
2023-01-02T15:40:18.258Z,1.9
2023-01-02T15:45:08.759Z,1.9
2023-01-02T15:50:08.216Z,1.3
2023-01-02T15:55:08.488Z,1.3
2023-01-02T16:00:08.191Z,1.5
2023-01-02T16:05:08.850Z,1.5
2023-01-02T16:10:08.837Z,1.3
2023-01-02T16:15:08.057Z,1.3
2023-01-02T16:20:08.903Z,0.9
2023-01-02T16:25:07.985Z,0.9
2023-01-02T16:30:08.588Z,1.2
2023-01-02T16:35:08.785Z,1.2
2023-01-02T16:40:08.583Z,1.3
2023-01-02T16:45:08.186Z,1.3
2023-01-02T16:50:08.672Z,1.8
2023-01-02T16:55:08.330Z,1.8
2023-01-02T17:00:08.559Z,1.8
2023-01-02T17:05:08.372Z,1.8
2023-01-02T17:10:08.203Z,2.2
2023-01-02T17:15:08.986Z,2.2
2023-01-02T17:20:08.967Z,1.9
2023-01-02T17:25:08.551Z,1.9
2023-01-02T17:30:08.868Z,1.9
2023-01-02T17:35:09.018Z,1.9
2023-01-02T17:40:08.512Z,2.7
2023-01-02T17:45:08.566Z,2.7
2023-01-02T17:50:09.002Z,2
2023-01-02T17:55:08.840Z,2
2023-01-02T18:00:08.320Z,2.2
2023-01-02T18:05:08.236Z,2.2
2023-01-02T18:10:10.428Z,2.6
2023-01-02T18:15:08.080Z,2.6
2023-01-02T18:20:08.747Z,2.7
2023-01-02T18:25:08.155Z,2.7
2023-01-02T18:30:08.585Z,2.7
2023-01-02T18:35:30.030Z,2.7
2023-01-02T18:40:08.579Z,2.6
2023-01-02T18:45:08.928Z,2.6
2023-01-02T18:50:08.310Z,3.1
2023-01-02T18:55:08.691Z,3.1
2023-01-02T19:00:09.035Z,3.1
2023-01-02T19:05:09.001Z,3.1
2023-01-02T19:10:08.440Z,3.6
2023-01-02T19:15:08.278Z,3.6
2023-01-02T19:20:08.615Z,2.7
2023-01-02T19:25:08.919Z,2.7
2023-01-02T19:30:08.242Z,2.7
2023-01-02T19:35:08.796Z,2.7
2023-01-02T19:40:10.584Z,2.5
2023-01-02T19:45:09.053Z,2.5
2023-01-02T19:50:08.346Z,2.4
2023-01-02T19:55:08.945Z,2.4
2023-01-02T20:00:08.350Z,2.7
2023-01-02T20:05:08.197Z,2.7
2023-01-02T20:10:08.543Z,2.7
2023-01-02T20:15:08.306Z,2.7
2023-01-02T20:20:08.517Z,2
2023-01-02T20:25:08.209Z,2
2023-01-02T20:30:08.520Z,2.4
2023-01-02T20:35:09.014Z,2.4
2023-01-02T20:40:08.396Z,3.6
2023-01-02T20:45:08.275Z,3.6
2023-01-02T20:50:08.531Z,4
2023-01-02T20:55:08.646Z,4
2023-01-02T21:00:08.641Z,4
2023-01-02T21:05:08.341Z,4
2023-01-02T21:10:09.180Z,4
2023-01-02T21:15:08.687Z,4
2023-01-02T21:20:08.895Z,4
2023-01-02T21:25:08.551Z,4
2023-01-02T21:30:08.290Z,4
2023-01-02T21:35:08.943Z,4
